sensor_id;sensor_type;location;lat;lon;timestamp;temperature;humidity
27848;DHT22;15212;48.830;8.730;2022-11-04T00:01:53;9.70;99.90
27848;DHT22;15212;48.830;8.730;2022-11-04T00:04:24;9.70;99.90
27848;DHT22;15212;48.830;8.730;2022-11-04T00:06:54;9.70;99.90
27848;DHT22;15212;48.830;8.730;2022-11-04T00:09:28;9.70;99.90
27848;DHT22;15212;48.830;8.730;2022-11-04T00:11:57;9.70;99.90
27848;DHT22;15212;48.830;8.730;2022-11-04T00:14:43;9.80;99.90
27848;DHT22;15212;48.830;8.730;2022-11-04T00:17:12;9.80;99.90
27848;DHT22;15212;48.830;8.730;2022-11-04T00:19:53;9.80;99.90
27848;DHT22;15212;48.830;8.730;2022-11-04T00:22:41;9.80;99.90
27848;DHT22;15212;48.830;8.730;2022-11-04T00:25:27;9.70;99.90
27848;DHT22;15212;48.830;8.730;2022-11-04T00:28:16;9.70;99.90
27848;DHT22;15212;48.830;8.730;2022-11-04T00:31:05;9.60;99.90
27848;DHT22;15212;48.830;8.730;2022-11-04T00:33:54;9.60;99.90
27848;DHT22;15212;48.830;8.730;2022-11-04T00:36:24;9.60;99.90
27848;DHT22;15212;48.830;8.730;2022-11-04T00:38:53;9.60;99.90
27848;DHT22;15212;48.830;8.730;2022-11-04T00:41:21;9.50;99.90
27848;DHT22;15212;48.830;8.730;2022-11-04T00:43:53;9.50;99.90
27848;DHT22;15212;48.830;8.730;2022-11-04T00:46:23;9.40;99.90
27848;DHT22;15212;48.830;8.730;2022-11-04T00:48:52;9.40;99.90
27848;DHT22;15212;48.830;8.730;2022-11-04T00:51:21;9.40;99.90
27848;DHT22;15212;48.830;8.730;2022-11-04T00:53:50;9.40;99.90
27848;DHT22;15212;48.830;8.730;2022-11-04T00:56:18;9.40;99.90
27848;DHT22;15212;48.830;8.730;2022-11-04T00:58:47;9.30;99.90
27848;DHT22;15212;48.830;8.730;2022-11-04T01:01:16;9.30;99.90
27848;DHT22;15212;48.830;8.730;2022-11-04T01:03:50;9.20;99.90
27848;DHT22;15212;48.830;8.730;2022-11-04T01:06:20;9.20;99.90
27848;DHT22;15212;48.830;8.730;2022-11-04T01:08:59;9.10;99.90
27848;DHT22;15212;48.830;8.730;2022-11-04T01:11:28;9.10;99.90
27848;DHT22;15212;48.830;8.730;2022-11-04T01:13:57;9.10;99.90
27848;DHT22;15212;48.830;8.730;2022-11-04T01:16:26;9.00;99.90
27848;DHT22;15212;48.830;8.730;2022-11-04T01:18:55;9.00;99.90
27848;DHT22;15212;48.830;8.730;2022-11-04T01:21:23;9.00;99.90
27848;DHT22;15212;48.830;8.730;2022-11-04T01:23:52;9.00;99.90
27848;DHT22;15212;48.830;8.730;2022-11-04T01:26:22;8.90;99.90
27848;DHT22;15212;48.830;8.730;2022-11-04T01:28:53;8.90;99.90
27848;DHT22;15212;48.830;8.730;2022-11-04T01:31:25;8.90;99.90
27848;DHT22;15212;48.830;8.730;2022-11-04T01:33:54;8.90;99.90
27848;DHT22;15212;48.830;8.730;2022-11-04T01:36:24;8.90;99.90
27848;DHT22;15212;48.830;8.730;2022-11-04T01:38:56;8.90;99.90
27848;DHT22;15212;48.830;8.730;2022-11-04T01:41:27;8.90;99.90
27848;DHT22;15212;48.830;8.730;2022-11-04T01:43:59;8.90;99.90
27848;DHT22;15212;48.830;8.730;2022-11-04T01:46:46;8.80;99.90
27848;DHT22;15212;48.830;8.730;2022-11-04T01:49:36;8.90;99.90
27848;DHT22;15212;48.830;8.730;2022-11-04T01:52:10;8.80;99.90
27848;DHT22;15212;48.830;8.730;2022-11-04T01:54:43;8.70;99.90
27848;DHT22;15212;48.830;8.730;2022-11-04T01:57:17;8.80;99.90
27848;DHT22;15212;48.830;8.730;2022-11-04T01:59:46;8.70;99.90
27848;DHT22;15212;48.830;8.730;2022-11-04T02:02:15;8.70;99.90
27848;DHT22;15212;48.830;8.730;2022-11-04T02:04:43;8.70;99.90
27848;DHT22;15212;48.830;8.730;2022-11-04T02:07:12;8.70;99.90
27848;DHT22;15212;48.830;8.730;2022-11-04T02:09:40;8.60;99.90
27848;DHT22;15212;48.830;8.730;2022-11-04T02:12:09;8.60;99.90
27848;DHT22;15212;48.830;8.730;2022-11-04T02:14:57;8.60;99.90
27848;DHT22;15212;48.830;8.730;2022-11-04T02:20:43;8.60;99.90
27848;DHT22;15212;48.830;8.730;2022-11-04T02:26:49;8.50;99.90
27848;DHT22;15212;48.830;8.730;2022-11-04T02:32:05;8.40;99.90
27848;DHT22;15212;48.830;8.730;2022-11-04T02:35:07;8.40;99.90
27848;DHT22;15212;48.830;8.730;2022-11-04T02:37:56;8.40;99.90
27848;DHT22;15212;48.830;8.730;2022-11-04T02:40:55;8.40;99.90
27848;DHT22;15212;48.830;8.730;2022-11-04T02:46:35;8.40;99.90
27848;DHT22;15212;48.830;8.730;2022-11-04T02:49:16;8.40;99.90
27848;DHT22;15212;48.830;8.730;2022-11-04T02:52:04;8.40;99.90
27848;DHT22;15212;48.830;8.730;2022-11-04T02:54:49;8.40;99.90
27848;DHT22;15212;48.830;8.730;2022-11-04T02:57:22;8.40;99.90
27848;DHT22;15212;48.830;8.730;2022-11-04T02:59:59;8.40;99.90
27848;DHT22;15212;48.830;8.730;2022-11-04T03:02:43;8.40;99.90
27848;DHT22;15212;48.830;8.730;2022-11-04T03:05:09;8.40;99.90
27848;DHT22;15212;48.830;8.730;2022-11-04T03:07:41;8.40;99.90
27848;DHT22;15212;48.830;8.730;2022-11-04T03:10:39;8.40;99.90
27848;DHT22;15212;48.830;8.730;2022-11-04T03:12:56;8.40;99.90
27848;DHT22;15212;48.830;8.730;2022-11-04T03:15:30;8.40;99.90
27848;DHT22;15212;48.830;8.730;2022-11-04T03:18:17;8.50;99.90
27848;DHT22;15212;48.830;8.730;2022-11-04T03:20:47;8.50;99.90
27848;DHT22;15212;48.830;8.730;2022-11-04T03:23:17;8.40;99.90
27848;DHT22;15212;48.830;8.730;2022-11-04T03:25:47;8.40;99.90
27848;DHT22;15212;48.830;8.730;2022-11-04T03:31:18;8.40;99.90
27848;DHT22;15212;48.830;8.730;2022-11-04T03:33:50;8.50;99.90
27848;DHT22;15212;48.830;8.730;2022-11-04T03:36:21;8.50;99.90
27848;DHT22;15212;48.830;8.730;2022-11-04T03:38:50;8.50;99.90
27848;DHT22;15212;48.830;8.730;2022-11-04T03:41:26;8.40;99.90
27848;DHT22;15212;48.830;8.730;2022-11-04T03:44:03;8.50;99.90
27848;DHT22;15212;48.830;8.730;2022-11-04T03:46:32;8.40;99.90
27848;DHT22;15212;48.830;8.730;2022-11-04T03:49:01;8.40;99.90
27848;DHT22;15212;48.830;8.730;2022-11-04T03:51:30;8.40;99.90
27848;DHT22;15212;48.830;8.730;2022-11-04T03:53:58;8.40;99.90
27848;DHT22;15212;48.830;8.730;2022-11-04T04:03:01;8.40;99.90
27848;DHT22;15212;48.830;8.730;2022-11-04T04:05:53;8.40;99.90
27848;DHT22;15212;48.830;8.730;2022-11-04T04:08:54;8.40;99.90
27848;DHT22;15212;48.830;8.730;2022-11-04T04:11:31;8.40;99.90
27848;DHT22;15212;48.830;8.730;2022-11-04T04:14:28;8.40;99.90
27848;DHT22;15212;48.830;8.730;2022-11-04T04:19:42;8.30;99.90
27848;DHT22;15212;48.830;8.730;2022-11-04T04:22:27;8.30;99.90
27848;DHT22;15212;48.830;8.730;2022-11-04T04:24:58;8.30;99.90
27848;DHT22;15212;48.830;8.730;2022-11-04T04:27:47;8.30;99.90
27848;DHT22;15212;48.830;8.730;2022-11-04T04:30:16;8.30;99.90
27848;DHT22;15212;48.830;8.730;2022-11-04T04:32:50;8.30;99.90
27848;DHT22;15212;48.830;8.730;2022-11-04T04:35:24;8.20;99.90
27848;DHT22;15212;48.830;8.730;2022-11-04T04:38:21;8.20;99.90
27848;DHT22;15212;48.830;8.730;2022-11-04T04:44:24;8.00;99.90
27848;DHT22;15212;48.830;8.730;2022-11-04T04:47:17;7.90;99.90
27848;DHT22;15212;48.830;8.730;2022-11-04T04:49:58;7.80;99.90
27848;DHT22;15212;48.830;8.730;2022-11-04T04:52:26;7.70;99.90
27848;DHT22;15212;48.830;8.730;2022-11-04T04:54:56;7.60;99.90
27848;DHT22;15212;48.830;8.730;2022-11-04T04:57:25;7.60;99.90
27848;DHT22;15212;48.830;8.730;2022-11-04T04:59:53;7.60;99.90
27848;DHT22;15212;48.830;8.730;2022-11-04T05:02:21;7.60;99.90
27848;DHT22;15212;48.830;8.730;2022-11-04T05:04:50;7.60;99.90
27848;DHT22;15212;48.830;8.730;2022-11-04T05:07:18;7.60;99.90
27848;DHT22;15212;48.830;8.730;2022-11-04T05:09:46;7.60;99.90
27848;DHT22;15212;48.830;8.730;2022-11-04T05:12:15;7.60;99.90
27848;DHT22;15212;48.830;8.730;2022-11-04T05:14:43;7.60;99.90
27848;DHT22;15212;48.830;8.730;2022-11-04T05:17:12;7.60;99.90
27848;DHT22;15212;48.830;8.730;2022-11-04T05:19:41;7.60;99.90
27848;DHT22;15212;48.830;8.730;2022-11-04T05:22:09;7.60;99.90
27848;DHT22;15212;48.830;8.730;2022-11-04T05:24:37;7.70;99.90
27848;DHT22;15212;48.830;8.730;2022-11-04T05:27:06;7.70;99.90
27848;DHT22;15212;48.830;8.730;2022-11-04T05:29:34;7.70;99.90
27848;DHT22;15212;48.830;8.730;2022-11-04T05:32:02;7.70;99.90
27848;DHT22;15212;48.830;8.730;2022-11-04T05:34:31;7.60;99.90
27848;DHT22;15212;48.830;8.730;2022-11-04T05:36:59;7.60;99.90
27848;DHT22;15212;48.830;8.730;2022-11-04T05:39:28;7.60;99.90
27848;DHT22;15212;48.830;8.730;2022-11-04T05:41:56;7.60;99.90
27848;DHT22;15212;48.830;8.730;2022-11-04T05:44:25;7.50;99.90
27848;DHT22;15212;48.830;8.730;2022-11-04T05:46:53;7.50;99.90
27848;DHT22;15212;48.830;8.730;2022-11-04T05:49:21;7.50;99.90
27848;DHT22;15212;48.830;8.730;2022-11-04T05:51:50;7.50;99.90
27848;DHT22;15212;48.830;8.730;2022-11-04T05:54:18;7.50;99.90
27848;DHT22;15212;48.830;8.730;2022-11-04T05:56:46;7.40;99.90
27848;DHT22;15212;48.830;8.730;2022-11-04T05:59:15;7.40;99.90
27848;DHT22;15212;48.830;8.730;2022-11-04T06:01:43;7.40;99.90
27848;DHT22;15212;48.830;8.730;2022-11-04T06:04:16;7.30;99.90
27848;DHT22;15212;48.830;8.730;2022-11-04T06:06:45;7.30;99.90
27848;DHT22;15212;48.830;8.730;2022-11-04T06:09:13;7.20;99.90
27848;DHT22;15212;48.830;8.730;2022-11-04T06:11:42;7.20;99.90
27848;DHT22;15212;48.830;8.730;2022-11-04T06:14:11;7.20;99.90
27848;DHT22;15212;48.830;8.730;2022-11-04T06:16:39;7.20;99.90
27848;DHT22;15212;48.830;8.730;2022-11-04T06:19:08;7.20;99.90
27848;DHT22;15212;48.830;8.730;2022-11-04T06:21:36;7.20;99.90
27848;DHT22;15212;48.830;8.730;2022-11-04T06:24:04;7.20;99.90
27848;DHT22;15212;48.830;8.730;2022-11-04T06:26:34;7.10;99.90
27848;DHT22;15212;48.830;8.730;2022-11-04T06:29:02;7.10;99.90
27848;DHT22;15212;48.830;8.730;2022-11-04T06:31:30;7.00;99.90
27848;DHT22;15212;48.830;8.730;2022-11-04T06:33:59;7.10;99.90
27848;DHT22;15212;48.830;8.730;2022-11-04T06:36:27;7.00;99.90
27848;DHT22;15212;48.830;8.730;2022-11-04T06:38:55;6.90;99.90
27848;DHT22;15212;48.830;8.730;2022-11-04T06:41:24;6.90;99.90
27848;DHT22;15212;48.830;8.730;2022-11-04T06:43:52;6.90;99.90
27848;DHT22;15212;48.830;8.730;2022-11-04T06:46:25;6.80;99.90
27848;DHT22;15212;48.830;8.730;2022-11-04T06:48:55;6.80;99.90
27848;DHT22;15212;48.830;8.730;2022-11-04T06:51:24;6.80;99.90
27848;DHT22;15212;48.830;8.730;2022-11-04T06:53:53;6.90;99.90
27848;DHT22;15212;48.830;8.730;2022-11-04T06:56:21;6.90;99.90
27848;DHT22;15212;48.830;8.730;2022-11-04T06:58:51;6.90;99.90
27848;DHT22;15212;48.830;8.730;2022-11-04T07:01:24;7.00;99.90
27848;DHT22;15212;48.830;8.730;2022-11-04T07:03:56;7.00;99.90
27848;DHT22;15212;48.830;8.730;2022-11-04T07:06:26;7.00;99.90
27848;DHT22;15212;48.830;8.730;2022-11-04T07:08:57;7.00;99.90
27848;DHT22;15212;48.830;8.730;2022-11-04T07:11:30;7.00;99.90
27848;DHT22;15212;48.830;8.730;2022-11-04T07:13:58;7.10;99.90
27848;DHT22;15212;48.830;8.730;2022-11-04T07:16:27;7.10;99.90
27848;DHT22;15212;48.830;8.730;2022-11-04T07:18:55;7.10;99.90
27848;DHT22;15212;48.830;8.730;2022-11-04T07:21:23;7.10;99.90
27848;DHT22;15212;48.830;8.730;2022-11-04T07:23:52;7.10;99.90
27848;DHT22;15212;48.830;8.730;2022-11-04T07:26:21;7.10;99.90
27848;DHT22;15212;48.830;8.730;2022-11-04T07:28:50;7.20;99.90
27848;DHT22;15212;48.830;8.730;2022-11-04T07:31:18;7.20;99.90
27848;DHT22;15212;48.830;8.730;2022-11-04T07:33:47;7.20;99.90
27848;DHT22;15212;48.830;8.730;2022-11-04T07:36:17;7.20;99.90
27848;DHT22;15212;48.830;8.730;2022-11-04T07:38:46;7.20;99.90
27848;DHT22;15212;48.830;8.730;2022-11-04T07:41:15;7.30;99.90
27848;DHT22;15212;48.830;8.730;2022-11-04T07:43:49;7.30;99.90
27848;DHT22;15212;48.830;8.730;2022-11-04T07:46:18;7.30;99.90
27848;DHT22;15212;48.830;8.730;2022-11-04T07:48:47;7.30;99.90
27848;DHT22;15212;48.830;8.730;2022-11-04T07:51:18;7.40;99.90
27848;DHT22;15212;48.830;8.730;2022-11-04T07:53:47;7.50;99.90
27848;DHT22;15212;48.830;8.730;2022-11-04T07:56:16;7.50;99.90
27848;DHT22;15212;48.830;8.730;2022-11-04T07:58:45;7.50;99.90
27848;DHT22;15212;48.830;8.730;2022-11-04T08:01:17;7.60;99.90
27848;DHT22;15212;48.830;8.730;2022-11-04T08:03:46;7.60;99.90
27848;DHT22;15212;48.830;8.730;2022-11-04T08:06:17;7.70;99.90
27848;DHT22;15212;48.830;8.730;2022-11-04T08:08:46;7.70;99.90
27848;DHT22;15212;48.830;8.730;2022-11-04T08:11:18;7.80;99.90
27848;DHT22;15212;48.830;8.730;2022-11-04T08:13:54;7.80;99.90
27848;DHT22;15212;48.830;8.730;2022-11-04T08:16:24;7.90;99.90
27848;DHT22;15212;48.830;8.730;2022-11-04T08:18:52;8.00;99.90
27848;DHT22;15212;48.830;8.730;2022-11-04T08:21:22;7.90;99.90
27848;DHT22;15212;48.830;8.730;2022-11-04T08:23:51;8.00;99.90
27848;DHT22;15212;48.830;8.730;2022-11-04T08:26:20;8.10;99.90
27848;DHT22;15212;48.830;8.730;2022-11-04T08:28:52;8.10;99.90
27848;DHT22;15212;48.830;8.730;2022-11-04T08:31:27;8.20;99.90
27848;DHT22;15212;48.830;8.730;2022-11-04T08:33:54;8.20;99.90
27848;DHT22;15212;48.830;8.730;2022-11-04T08:36:35;8.30;99.90
27848;DHT22;15212;48.830;8.730;2022-11-04T08:39:00;8.30;99.90
27848;DHT22;15212;48.830;8.730;2022-11-04T08:41:31;8.40;99.90
27848;DHT22;15212;48.830;8.730;2022-11-04T08:44:00;8.50;99.90
27848;DHT22;15212;48.830;8.730;2022-11-04T08:46:35;8.60;99.90
27848;DHT22;15212;48.830;8.730;2022-11-04T08:49:05;8.60;99.90
27848;DHT22;15212;48.830;8.730;2022-11-04T08:51:35;8.70;99.90
27848;DHT22;15212;48.830;8.730;2022-11-04T08:54:05;8.70;99.90
27848;DHT22;15212;48.830;8.730;2022-11-04T08:56:36;8.80;99.90
27848;DHT22;15212;48.830;8.730;2022-11-04T08:59:05;8.70;99.90
27848;DHT22;15212;48.830;8.730;2022-11-04T09:01:35;8.80;99.90
27848;DHT22;15212;48.830;8.730;2022-11-04T09:04:04;8.80;99.90
27848;DHT22;15212;48.830;8.730;2022-11-04T09:06:36;8.90;99.90
27848;DHT22;15212;48.830;8.730;2022-11-04T09:09:08;9.00;99.90
27848;DHT22;15212;48.830;8.730;2022-11-04T09:11:40;8.90;99.90
27848;DHT22;15212;48.830;8.730;2022-11-04T09:14:10;9.00;99.90
27848;DHT22;15212;48.830;8.730;2022-11-04T09:16:40;9.00;99.90
27848;DHT22;15212;48.830;8.730;2022-11-04T09:19:09;9.00;99.90
27848;DHT22;15212;48.830;8.730;2022-11-04T09:21:37;9.00;99.90
27848;DHT22;15212;48.830;8.730;2022-11-04T09:24:06;9.00;99.90
27848;DHT22;15212;48.830;8.730;2022-11-04T09:26:35;9.10;99.90
27848;DHT22;15212;48.830;8.730;2022-11-04T09:29:03;9.00;99.90
27848;DHT22;15212;48.830;8.730;2022-11-04T09:31:33;9.00;99.90
27848;DHT22;15212;48.830;8.730;2022-11-04T09:34:21;9.00;99.90
27848;DHT22;15212;48.830;8.730;2022-11-04T09:36:49;9.00;99.90
27848;DHT22;15212;48.830;8.730;2022-11-04T09:39:19;9.00;99.90
27848;DHT22;15212;48.830;8.730;2022-11-04T09:42:09;9.00;99.90
27848;DHT22;15212;48.830;8.730;2022-11-04T09:44:59;9.00;99.90
27848;DHT22;15212;48.830;8.730;2022-11-04T09:47:32;9.00;99.90
27848;DHT22;15212;48.830;8.730;2022-11-04T09:50:03;9.10;99.90
27848;DHT22;15212;48.830;8.730;2022-11-04T09:52:40;9.20;99.90
27848;DHT22;15212;48.830;8.730;2022-11-04T09:55:21;9.30;99.90
27848;DHT22;15212;48.830;8.730;2022-11-04T09:58:03;9.30;99.90
27848;DHT22;15212;48.830;8.730;2022-11-04T10:00:34;9.40;99.90
27848;DHT22;15212;48.830;8.730;2022-11-04T10:06:43;9.50;99.90
27848;DHT22;15212;48.830;8.730;2022-11-04T10:09:56;9.60;99.90
27848;DHT22;15212;48.830;8.730;2022-11-04T10:15:55;9.90;99.90
27848;DHT22;15212;48.830;8.730;2022-11-04T10:18:49;10.00;99.90
27848;DHT22;15212;48.830;8.730;2022-11-04T10:21:48;10.20;99.90
27848;DHT22;15212;48.830;8.730;2022-11-04T10:24:20;10.40;99.90
27848;DHT22;15212;48.830;8.730;2022-11-04T10:26:59;10.50;99.90
27848;DHT22;15212;48.830;8.730;2022-11-04T10:29:39;10.60;99.90
27848;DHT22;15212;48.830;8.730;2022-11-04T10:32:21;10.60;99.90
27848;DHT22;15212;48.830;8.730;2022-11-04T10:35:01;10.70;99.90
27848;DHT22;15212;48.830;8.730;2022-11-04T10:37:34;10.70;99.90
27848;DHT22;15212;48.830;8.730;2022-11-04T10:40:16;10.60;99.90
27848;DHT22;15212;48.830;8.730;2022-11-04T10:42:56;10.60;99.90
27848;DHT22;15212;48.830;8.730;2022-11-04T10:45:32;10.60;99.90
27848;DHT22;15212;48.830;8.730;2022-11-04T10:48:04;10.60;99.90
27848;DHT22;15212;48.830;8.730;2022-11-04T10:50:54;10.60;99.90
27848;DHT22;15212;48.830;8.730;2022-11-04T10:53:29;10.60;99.90
27848;DHT22;15212;48.830;8.730;2022-11-04T10:58:47;10.70;99.90
27848;DHT22;15212;48.830;8.730;2022-11-04T11:01:32;10.70;99.90
27848;DHT22;15212;48.830;8.730;2022-11-04T11:04:05;10.70;99.90
27848;DHT22;15212;48.830;8.730;2022-11-04T11:06:36;10.70;99.90
27848;DHT22;15212;48.830;8.730;2022-11-04T11:09:23;10.70;99.90
27848;DHT22;15212;48.830;8.730;2022-11-04T11:11:53;10.70;99.90
27848;DHT22;15212;48.830;8.730;2022-11-04T11:14:30;10.80;99.90
27848;DHT22;15212;48.830;8.730;2022-11-04T11:22:48;10.80;99.90
27848;DHT22;15212;48.830;8.730;2022-11-04T11:25:27;10.80;99.90
27848;DHT22;15212;48.830;8.730;2022-11-04T11:28:19;10.80;99.90
27848;DHT22;15212;48.830;8.730;2022-11-04T11:33:34;10.70;99.90
27848;DHT22;15212;48.830;8.730;2022-11-04T11:36:14;10.70;99.90
27848;DHT22;15212;48.830;8.730;2022-11-04T11:39:04;10.70;99.90
27848;DHT22;15212;48.830;8.730;2022-11-04T11:42:01;10.60;99.90
27848;DHT22;15212;48.830;8.730;2022-11-04T11:44:33;10.50;99.90
27848;DHT22;15212;48.830;8.730;2022-11-04T11:47:20;10.30;99.90
27848;DHT22;15212;48.830;8.730;2022-11-04T11:52:48;10.10;99.90
27848;DHT22;15212;48.830;8.730;2022-11-04T11:55:33;9.90;99.90
27848;DHT22;15212;48.830;8.730;2022-11-04T11:58:21;9.80;99.90
27848;DHT22;15212;48.830;8.730;2022-11-04T12:01:29;9.70;99.90
27848;DHT22;15212;48.830;8.730;2022-11-04T12:04:01;9.70;99.90
27848;DHT22;15212;48.830;8.730;2022-11-04T12:10:09;9.60;99.90
27848;DHT22;15212;48.830;8.730;2022-11-04T12:15:32;9.60;99.90
27848;DHT22;15212;48.830;8.730;2022-11-04T12:18:27;9.60;99.90
27848;DHT22;15212;48.830;8.730;2022-11-04T12:30:09;9.70;99.90
27848;DHT22;15212;48.830;8.730;2022-11-04T12:32:57;9.80;99.90
27848;DHT22;15212;48.830;8.730;2022-11-04T12:35:56;9.80;99.90
27848;DHT22;15212;48.830;8.730;2022-11-04T12:42:21;9.80;99.90
27848;DHT22;15212;48.830;8.730;2022-11-04T12:47:42;9.70;99.90
27848;DHT22;15212;48.830;8.730;2022-11-04T13:01:27;9.60;99.90
27848;DHT22;15212;48.830;8.730;2022-11-04T13:04:09;9.60;99.90
27848;DHT22;15212;48.830;8.730;2022-11-04T13:06:52;9.60;99.90
27848;DHT22;15212;48.830;8.730;2022-11-04T13:09:43;9.60;99.90
27848;DHT22;15212;48.830;8.730;2022-11-04T13:12:29;9.60;99.90
27848;DHT22;15212;48.830;8.730;2022-11-04T13:15:00;9.60;99.90
27848;DHT22;15212;48.830;8.730;2022-11-04T13:17:33;9.60;99.90
27848;DHT22;15212;48.830;8.730;2022-11-04T13:22:47;9.50;99.90
27848;DHT22;15212;48.830;8.730;2022-11-04T13:25:23;9.40;99.90
27848;DHT22;15212;48.830;8.730;2022-11-04T13:27:58;9.40;99.90
27848;DHT22;15212;48.830;8.730;2022-11-04T13:30:39;9.30;99.90
27848;DHT22;15212;48.830;8.730;2022-11-04T13:33:34;9.30;99.90
27848;DHT22;15212;48.830;8.730;2022-11-04T13:36:06;9.30;99.90
27848;DHT22;15212;48.830;8.730;2022-11-04T13:38:41;9.10;99.90
27848;DHT22;15212;48.830;8.730;2022-11-04T13:44:34;9.10;99.90
27848;DHT22;15212;48.830;8.730;2022-11-04T13:47:13;9.10;99.90
27848;DHT22;15212;48.830;8.730;2022-11-04T13:49:54;9.00;99.90
27848;DHT22;15212;48.830;8.730;2022-11-04T13:52:27;9.00;99.90
27848;DHT22;15212;48.830;8.730;2022-11-04T13:54:56;9.00;99.90
27848;DHT22;15212;48.830;8.730;2022-11-04T13:57:28;9.00;99.90
27848;DHT22;15212;48.830;8.730;2022-11-04T14:18:54;9.00;99.90
27848;DHT22;15212;48.830;8.730;2022-11-04T14:21:25;9.10;99.90
27848;DHT22;15212;48.830;8.730;2022-11-04T14:23:57;9.20;99.90
27848;DHT22;15212;48.830;8.730;2022-11-04T14:26:43;9.40;99.90
27848;DHT22;15212;48.830;8.730;2022-11-04T14:29:24;9.60;99.90
27848;DHT22;15212;48.830;8.730;2022-11-04T14:31:51;9.70;99.90
27848;DHT22;15212;48.830;8.730;2022-11-04T14:34:30;9.90;99.90
27848;DHT22;15212;48.830;8.730;2022-11-04T14:37:20;10.00;99.90
27848;DHT22;15212;48.830;8.730;2022-11-04T14:39:56;10.10;99.90
27848;DHT22;15212;48.830;8.730;2022-11-04T14:42:48;10.10;99.90
27848;DHT22;15212;48.830;8.730;2022-11-04T14:45:25;10.00;99.90
27848;DHT22;15212;48.830;8.730;2022-11-04T14:47:59;10.00;99.90
27848;DHT22;15212;48.830;8.730;2022-11-04T14:50:28;9.90;99.90
27848;DHT22;15212;48.830;8.730;2022-11-04T14:52:59;9.80;99.90
27848;DHT22;15212;48.830;8.730;2022-11-04T14:55:30;9.70;99.90
27848;DHT22;15212;48.830;8.730;2022-11-04T15:00:52;9.50;99.90
27848;DHT22;15212;48.830;8.730;2022-11-04T15:03:24;9.40;99.90
27848;DHT22;15212;48.830;8.730;2022-11-04T15:05:59;9.30;99.90
27848;DHT22;15212;48.830;8.730;2022-11-04T15:08:41;9.30;99.90
27848;DHT22;15212;48.830;8.730;2022-11-04T15:11:13;9.20;99.90
27848;DHT22;15212;48.830;8.730;2022-11-04T15:13:55;9.10;99.90
27848;DHT22;15212;48.830;8.730;2022-11-04T15:16:26;9.00;99.90
27848;DHT22;15212;48.830;8.730;2022-11-04T15:18:57;8.90;99.90
27848;DHT22;15212;48.830;8.730;2022-11-04T15:21:26;8.90;99.90
27848;DHT22;15212;48.830;8.730;2022-11-04T15:23:55;8.80;99.90
27848;DHT22;15212;48.830;8.730;2022-11-04T15:26:32;8.70;99.90
27848;DHT22;15212;48.830;8.730;2022-11-04T15:29:00;8.70;99.90
27848;DHT22;15212;48.830;8.730;2022-11-04T15:31:32;8.60;99.90
27848;DHT22;15212;48.830;8.730;2022-11-04T15:34:05;8.60;99.90
27848;DHT22;15212;48.830;8.730;2022-11-04T15:36:38;8.60;99.90
27848;DHT22;15212;48.830;8.730;2022-11-04T15:39:11;8.60;99.90
27848;DHT22;15212;48.830;8.730;2022-11-04T15:41:50;8.60;99.90
27848;DHT22;15212;48.830;8.730;2022-11-04T15:44:48;8.60;99.90
27848;DHT22;15212;48.830;8.730;2022-11-04T15:50:13;8.60;99.90
27848;DHT22;15212;48.830;8.730;2022-11-04T15:52:52;8.50;99.90
27848;DHT22;15212;48.830;8.730;2022-11-04T15:55:23;8.50;99.90
27848;DHT22;15212;48.830;8.730;2022-11-04T15:57:54;8.50;99.90
27848;DHT22;15212;48.830;8.730;2022-11-04T16:00:24;8.50;99.90
27848;DHT22;15212;48.830;8.730;2022-11-04T16:03:01;8.50;99.90
27848;DHT22;15212;48.830;8.730;2022-11-04T16:05:27;8.50;99.90
27848;DHT22;15212;48.830;8.730;2022-11-04T16:08:20;8.50;99.90
27848;DHT22;15212;48.830;8.730;2022-11-04T16:11:06;8.50;99.90
27848;DHT22;15212;48.830;8.730;2022-11-04T16:13:23;8.40;99.90
27848;DHT22;15212;48.830;8.730;2022-11-04T16:18:43;8.40;99.90
27848;DHT22;15212;48.830;8.730;2022-11-04T16:21:35;8.40;99.90
27848;DHT22;15212;48.830;8.730;2022-11-04T16:24:15;8.40;99.90
27848;DHT22;15212;48.830;8.730;2022-11-04T16:26:44;8.40;99.90
27848;DHT22;15212;48.830;8.730;2022-11-04T16:29:32;8.40;99.90
27848;DHT22;15212;48.830;8.730;2022-11-04T16:32:17;8.40;99.90
27848;DHT22;15212;48.830;8.730;2022-11-04T16:34:49;8.50;99.90
27848;DHT22;15212;48.830;8.730;2022-11-04T16:37:20;8.50;99.90
27848;DHT22;15212;48.830;8.730;2022-11-04T16:39:49;8.50;99.90
27848;DHT22;15212;48.830;8.730;2022-11-04T16:42:17;8.40;99.90
27848;DHT22;15212;48.830;8.730;2022-11-04T16:44:48;8.40;99.90
27848;DHT22;15212;48.830;8.730;2022-11-04T16:47:18;8.30;99.90
27848;DHT22;15212;48.830;8.730;2022-11-04T16:49:46;8.30;99.90
27848;DHT22;15212;48.830;8.730;2022-11-04T16:52:19;8.30;99.90
27848;DHT22;15212;48.830;8.730;2022-11-04T16:54:48;8.30;99.90
27848;DHT22;15212;48.830;8.730;2022-11-04T16:57:16;8.30;99.90
27848;DHT22;15212;48.830;8.730;2022-11-04T16:59:45;8.20;99.90
27848;DHT22;15212;48.830;8.730;2022-11-04T17:02:19;8.10;99.90
27848;DHT22;15212;48.830;8.730;2022-11-04T17:04:57;8.00;99.90
27848;DHT22;15212;48.830;8.730;2022-11-04T17:07:26;7.90;99.90
27848;DHT22;15212;48.830;8.730;2022-11-04T17:09:54;7.90;99.90
27848;DHT22;15212;48.830;8.730;2022-11-04T17:12:22;7.90;99.90
27848;DHT22;15212;48.830;8.730;2022-11-04T17:14:51;7.90;99.90
27848;DHT22;15212;48.830;8.730;2022-11-04T17:17:19;7.80;99.90
27848;DHT22;15212;48.830;8.730;2022-11-04T17:19:48;7.80;99.90
27848;DHT22;15212;48.830;8.730;2022-11-04T17:22:16;7.80;99.90
27848;DHT22;15212;48.830;8.730;2022-11-04T17:24:45;7.80;99.90
27848;DHT22;15212;48.830;8.730;2022-11-04T17:27:13;7.80;99.90
27848;DHT22;15212;48.830;8.730;2022-11-04T17:29:42;7.90;99.90
27848;DHT22;15212;48.830;8.730;2022-11-04T17:32:10;7.90;99.90
27848;DHT22;15212;48.830;8.730;2022-11-04T17:34:39;7.90;99.90
27848;DHT22;15212;48.830;8.730;2022-11-04T17:37:12;7.90;99.90
27848;DHT22;15212;48.830;8.730;2022-11-04T17:39:41;7.90;99.90
27848;DHT22;15212;48.830;8.730;2022-11-04T17:42:09;7.90;99.90
27848;DHT22;15212;48.830;8.730;2022-11-04T17:44:55;7.90;99.90
27848;DHT22;15212;48.830;8.730;2022-11-04T17:47:23;8.00;99.90
27848;DHT22;15212;48.830;8.730;2022-11-04T17:49:52;8.10;99.90
27848;DHT22;15212;48.830;8.730;2022-11-04T17:52:20;8.10;99.90
27848;DHT22;15212;48.830;8.730;2022-11-04T17:54:49;8.10;99.90
27848;DHT22;15212;48.830;8.730;2022-11-04T17:57:17;8.10;99.90
27848;DHT22;15212;48.830;8.730;2022-11-04T17:59:45;8.20;99.90
27848;DHT22;15212;48.830;8.730;2022-11-04T18:02:14;8.10;99.90
27848;DHT22;15212;48.830;8.730;2022-11-04T18:04:44;8.10;99.90
27848;DHT22;15212;48.830;8.730;2022-11-04T18:07:12;8.10;99.90
27848;DHT22;15212;48.830;8.730;2022-11-04T18:09:41;8.10;99.90
27848;DHT22;15212;48.830;8.730;2022-11-04T18:12:09;8.10;99.90
27848;DHT22;15212;48.830;8.730;2022-11-04T18:14:55;8.10;99.90
27848;DHT22;15212;48.830;8.730;2022-11-04T18:17:23;8.10;99.90
27848;DHT22;15212;48.830;8.730;2022-11-04T18:19:51;8.20;99.90
27848;DHT22;15212;48.830;8.730;2022-11-04T18:22:20;8.20;99.90
27848;DHT22;15212;48.830;8.730;2022-11-04T18:24:48;8.10;99.90